Terminal Aerodrome Forecast
Issued by NWS Wilmington, OH

Current Version | Previous Version | Graphics & Text | Print | Product List | Glossary On
Versions: 1 2 3 4 5 6 7 8 9 10 11 12 13 14 15 16 17 18 19 20 21 22 23
777
FTUS41 KILN 262343
TAFDAY
TAF
KDAY 262343Z 2700/2724 18004KT P6SM FEW040 BKN250
     FM270800 20004KT P6SM VCTS SCT040CB BKN200
     FM271400 20011KT P6SM SHRA VCTS SCT040CB OVC080
     FM272200 22006KT P6SM SHRA OVC025=

USA.gov is the U.S. government's official web portal to all federal, state and local government web resources and services.